createdAt,value
2019-05-28T00:02:08.904Z,68
2019-05-28T00:07:09.044Z,68
2019-05-28T00:12:08.931Z,69
2019-05-28T00:17:08.554Z,69
2019-05-28T00:22:08.176Z,69
2019-05-28T00:27:09.053Z,69
2019-05-28T00:32:08.440Z,69
2019-05-28T00:37:08.048Z,69
2019-05-28T00:42:09.053Z,70
2019-05-28T00:47:08.616Z,70
2019-05-28T00:52:08.602Z,70
2019-05-28T00:57:08.256Z,70
2019-05-28T01:02:08.922Z,70
2019-05-28T01:07:08.121Z,70
2019-05-28T01:12:08.096Z,70
2019-05-28T01:17:08.444Z,70
2019-05-28T01:22:09.040Z,70
2019-05-28T01:27:08.303Z,70
2019-05-28T01:32:08.345Z,70
2019-05-28T01:37:08.513Z,70
2019-05-28T01:42:08.677Z,70
2019-05-28T01:47:08.006Z,70
2019-05-28T01:52:09.049Z,70
2019-05-28T01:57:08.453Z,70
2019-05-28T02:02:09.054Z,70
2019-05-28T02:07:07.122Z,70
2019-05-28T02:12:08.279Z,70
2019-05-28T02:17:07.907Z,70
2019-05-28T02:22:08.346Z,70
2019-05-28T02:27:08.364Z,70
2019-05-28T02:32:08.141Z,70
2019-05-28T02:37:08.986Z,70
2019-05-28T02:42:08.330Z,70
2019-05-28T02:47:08.908Z,70
2019-05-28T02:52:08.289Z,70
2019-05-28T02:57:08.662Z,70
2019-05-28T03:02:08.216Z,70
2019-05-28T03:07:07.796Z,70
2019-05-28T03:12:08.309Z,70
2019-05-28T03:17:09.108Z,70
2019-05-28T03:22:07.620Z,70
2019-05-28T03:27:08.782Z,70
2019-05-28T03:32:09.417Z,70
2019-05-28T03:37:09.316Z,70
2019-05-28T03:42:07.797Z,70
2019-05-28T03:47:08.519Z,70
2019-05-28T03:52:08.755Z,70
2019-05-28T03:57:07.749Z,70
2019-05-28T04:02:22.599Z,70
2019-05-28T04:07:08.689Z,70
2019-05-28T04:12:07.443Z,70
2019-05-28T04:17:08.221Z,69
2019-05-28T04:22:08.150Z,69
2019-05-28T04:27:07.828Z,69
2019-05-28T04:32:08.047Z,69
2019-05-28T04:37:08.091Z,69
2019-05-28T04:52:08.414Z,69
2019-05-28T04:57:08.605Z,69
2019-05-28T05:02:09.100Z,69
2019-05-28T05:12:08.042Z,69
2019-05-28T05:22:08.201Z,68
2019-05-28T05:32:08.498Z,68
2019-05-28T05:37:07.723Z,68
2019-05-28T05:42:08.845Z,68
2019-05-28T05:47:08.045Z,68
2019-05-28T06:12:08.822Z,67
2019-05-28T06:17:10.360Z,66
2019-05-28T06:22:08.386Z,66
2019-05-28T06:37:08.571Z,65
2019-05-28T06:42:08.952Z,65
2019-05-28T06:47:07.942Z,65
2019-05-28T06:52:07.986Z,64
2019-05-28T07:07:08.965Z,64
2019-05-28T07:12:08.016Z,64
2019-05-28T07:17:08.054Z,64
2019-05-28T07:22:08.122Z,63
2019-05-28T07:27:08.259Z,63
2019-05-28T07:37:08.505Z,63
2019-05-28T07:52:07.677Z,62
2019-05-28T07:57:07.965Z,62
2019-05-28T08:32:08.027Z,59
2019-05-28T08:42:07.978Z,59
2019-05-28T08:47:08.108Z,58
2019-05-28T08:52:07.589Z,58
2019-05-28T09:17:08.072Z,58
2019-05-28T09:22:24.406Z,58
2019-05-28T09:37:08.345Z,57
2019-05-28T09:42:06.734Z,57
2019-05-28T09:47:07.482Z,57
2019-05-28T09:52:07.355Z,56
2019-05-28T10:12:08.428Z,55
2019-05-28T10:17:08.829Z,55
2019-05-28T10:22:08.353Z,54
2019-05-28T10:32:08.624Z,54
2019-05-28T10:42:08.625Z,53
2019-05-28T10:47:07.451Z,52
2019-05-28T10:57:08.347Z,51
2019-05-28T11:02:08.297Z,51
2019-05-28T11:12:07.956Z,52
2019-05-28T11:17:06.626Z,52
2019-05-28T11:22:09.188Z,52
2019-05-28T11:27:08.606Z,53
2019-05-28T11:47:07.605Z,52
2019-05-28T11:52:06.459Z,52
2019-05-28T12:02:08.086Z,52
2019-05-28T12:12:08.038Z,51
2019-05-28T12:22:08.735Z,50
2019-05-28T12:27:08.340Z,50
2019-05-28T12:37:09.135Z,49
2019-05-28T12:42:07.680Z,49
2019-05-28T12:47:09.286Z,49
2019-05-28T12:52:07.412Z,48
2019-05-28T12:57:09.957Z,48
2019-05-28T13:02:08.440Z,50
2019-05-28T13:07:09.239Z,52
2019-05-28T13:12:07.579Z,54
2019-05-28T13:17:07.650Z,55
2019-05-28T13:22:07.967Z,55
2019-05-28T13:27:18.072Z,56
2019-05-28T13:37:08.187Z,57
2019-05-28T13:47:07.512Z,57
2019-05-28T13:52:12.023Z,57
2019-05-28T14:02:09.576Z,62
2019-05-28T14:07:08.079Z,64
2019-05-28T14:17:07.939Z,67
2019-05-28T14:22:09.027Z,68
2019-05-28T14:27:07.133Z,68
2019-05-28T14:32:08.492Z,69
2019-05-28T14:37:08.747Z,70
2019-05-28T14:42:09.992Z,70
2019-05-28T14:52:08.006Z,71
2019-05-28T15:02:09.950Z,72
2019-05-28T15:07:08.513Z,72
2019-05-28T15:12:09.765Z,73
2019-05-28T15:17:08.636Z,73
2019-05-28T15:22:07.997Z,74
2019-05-28T15:27:08.607Z,74
2019-05-28T15:32:08.886Z,74
2019-05-28T15:42:19.266Z,75
2019-05-28T15:47:10.777Z,76
2019-05-28T15:52:08.554Z,77
2019-05-28T15:57:08.883Z,76
2019-05-28T16:02:07.226Z,76
2019-05-28T16:17:10.451Z,75
2019-05-28T16:22:09.137Z,75
2019-05-28T16:37:08.897Z,72
2019-05-28T16:42:08.108Z,71
2019-05-28T16:47:16.688Z,70
2019-05-28T16:57:10.705Z,67
2019-05-28T17:02:09.185Z,65
2019-05-28T17:22:09.544Z,60
2019-05-28T17:27:08.167Z,59
2019-05-28T17:37:08.460Z,56
2019-05-28T17:57:09.822Z,55
2019-05-28T18:07:10.545Z,54
2019-05-28T18:12:10.842Z,55
2019-05-28T18:17:09.207Z,54
2019-05-28T18:22:10.517Z,54
2019-05-28T18:27:07.537Z,54
2019-05-28T18:32:10.731Z,54
2019-05-28T18:37:08.779Z,55
2019-05-28T18:52:08.496Z,57
2019-05-28T18:57:10.964Z,57
2019-05-28T19:02:10.026Z,57
2019-05-28T19:17:09.574Z,58
2019-05-28T19:22:09.110Z,58
2019-05-28T19:27:10.466Z,59
2019-05-28T19:32:10.355Z,59
2019-05-28T19:37:10.864Z,59
2019-05-28T19:42:09.994Z,59
2019-05-28T19:47:10.327Z,60
2019-05-28T19:52:10.793Z,61
2019-05-28T19:57:10.104Z,61
2019-05-28T20:12:12.441Z,64
2019-05-28T20:17:10.613Z,64
2019-05-28T20:32:09.831Z,65
2019-05-28T20:37:10.066Z,65
2019-05-28T20:42:10.195Z,66
2019-05-28T20:47:09.274Z,67
2019-05-28T20:57:09.700Z,68
2019-05-28T21:02:09.890Z,69
2019-05-28T21:07:08.958Z,69
2019-05-28T21:12:09.076Z,69
2019-05-28T21:17:10.064Z,70
2019-05-28T21:22:23.839Z,70
2019-05-28T21:27:10.749Z,70
2019-05-28T21:32:09.112Z,70
2019-05-28T21:37:10.956Z,71
2019-05-28T21:42:09.280Z,71
2019-05-28T21:47:10.992Z,72
2019-05-28T21:52:09.851Z,72
2019-05-28T21:57:10.288Z,72
2019-05-28T22:02:09.656Z,72
2019-05-28T22:07:10.967Z,72
2019-05-28T22:17:12.912Z,73
2019-05-28T22:22:09.953Z,73
2019-05-28T22:27:10.086Z,73
2019-05-28T22:32:09.919Z,73
2019-05-28T22:37:09.982Z,74
2019-05-28T22:42:08.948Z,74
2019-05-28T22:47:10.981Z,74
2019-05-28T22:52:10.248Z,74
2019-05-28T22:57:10.839Z,75
2019-05-28T23:02:10.018Z,75
2019-05-28T23:07:11.186Z,75
2019-05-28T23:12:10.244Z,75
2019-05-28T23:17:10.656Z,75
2019-05-28T23:22:09.461Z,75
2019-05-28T23:27:11.997Z,76
2019-05-28T23:32:10.398Z,76
2019-05-28T23:37:10.968Z,76
2019-05-28T23:42:09.770Z,76
2019-05-28T23:47:10.345Z,76
2019-05-28T23:52:11.350Z,76
2019-05-28T23:57:11.911Z,76
